Time;durP1;ratioP1;P1;durP2;ratioP2;P2;SDS_P1;SDS_P2;PMS_P1;PMS_P2;Temp;Humidity;BMP_temperature;BMP_pressure;BME280_temperature;BME280_humidity;BME280_pressure;Samples;Min_cycle;Max_cycle;Signal;HPM_P1;HPM_P2
2022/12/20 00:04:37;;;;;;;2.20;1.43;;;16.40;49.40;;;;;;10208868;28;20532;-81
2022/12/20 00:09:33;;;;;;;1.57;1.40;;;16.40;49.40;;;;;;10208649;28;20220;-81
2022/12/20 00:14:28;;;;;;;1.63;1.53;;;16.40;49.30;;;;;;10208518;28;20189;-81
2022/12/20 00:19:24;;;;;;;2.23;1.80;;;16.40;49.30;;;;;;10208240;28;20201;-81
2022/12/20 00:24:19;;;;;;;1.37;1.27;;;16.40;49.30;;;;;;10208103;28;20176;-81
2022/12/20 00:29:14;;;;;;;1.40;1.30;;;16.40;49.30;;;;;;10207920;28;20173;-81
2022/12/20 00:34:11;;;;;;;1.30;1.20;;;;;;;;;;10207426;28;20529;-81
2022/12/20 00:39:07;;;;;;;1.57;1.47;;;;;;;;;;10207405;28;20655;-81
2022/12/20 00:44:02;;;;;;;1.43;1.30;;;;;;;;;;10207382;28;20184;-81
2022/12/20 00:48:59;;;;;;;1.80;1.70;;;;;;;;;;10207221;28;20230;-81
2022/12/20 00:53:54;;;;;;;1.33;1.20;;;;;;;;;;10206954;28;20174;-81
2022/12/20 00:58:52;;;;;;;1.40;1.30;;;;;;;;;;10205991;28;20229;-81
2022/12/20 01:03:48;;;;;;;1.27;1.17;;;;;;;;;;10206110;28;20190;-81
2022/12/20 01:08:44;;;;;;;1.40;1.27;;;;;;;;;;10206437;28;20181;-80
2022/12/20 01:13:39;;;;;;;1.97;1.50;;;;;;;;;;10206255;28;20182;-80
2022/12/20 01:18:35;;;;;;;1.40;1.30;;;;;;;;;;10205513;28;20627;-80
2022/12/20 01:23:31;;;;;;;1.13;1.03;;;;;;;;;;10205854;28;20255;-80
2022/12/20 01:28:27;;;;;;;1.67;1.30;;;;;;;;;;10205722;28;20226;-81
2022/12/20 01:33:23;;;;;;;1.83;1.63;;;;;;;;;;10205548;28;20217;-80
2022/12/20 01:38:19;;;;;;;1.30;1.20;;;;;;;;;;10205494;28;20215;-80
2022/12/20 01:43:15;;;;;;;2.03;1.47;;;;;;;;;;10205127;28;20185;-80
2022/12/20 01:48:11;;;;;;;1.83;1.27;;;;;;;;;;10204970;28;20260;-80
2022/12/20 01:53:06;;;;;;;1.20;1.10;;;;;;;;;;10204210;28;20192;-81
2022/12/20 01:58:02;;;;;;;1.70;1.60;;;;;;;;;;10204013;28;20625;-81
2022/12/20 02:02:58;;;;;;;1.37;1.27;;;;;;;;;;10203822;28;20185;-80
2022/12/20 02:07:54;;;;;;;1.87;1.50;;;;;;;;;;10204247;28;20177;-80
2022/12/20 02:12:50;;;;;;;1.10;1.00;;;;;;;;;;10204074;28;20172;-80
2022/12/20 02:17:46;;;;;;;1.60;1.50;;;;;;;;;;10219131;28;20209;-81
2022/12/20 02:22:42;;;;;;;1.10;1.00;;;;;;;;;;10203674;28;20176;-80
2022/12/20 02:27:38;;;;;;;1.43;1.20;;;;;;;;;;10203994;28;20511;-81
2022/12/20 02:32:33;;;;;;;1.00;0.90;;;;;;;;;;10203427;28;20189;-81
2022/12/20 02:37:30;;;;;;;1.40;1.30;;;;;;;;;;10203241;28;20665;-81
2022/12/20 02:42:26;;;;;;;1.20;1.10;;;;;;;;;;10203146;28;20227;-81
2022/12/20 02:47:21;;;;;;;1.50;1.40;;;;;;;;;;10203024;28;20205;-81
2022/12/20 02:52:17;;;;;;;1.37;1.27;;;;;;;;;;10202839;28;20270;-80
2022/12/20 02:57:13;;;;;;;1.50;1.37;;;;;;;;;;10202104;28;20228;-81
2022/12/20 03:02:09;;;;;;;1.43;1.33;;;;;;;;;;10202687;28;20176;-81
2022/12/20 03:07:05;;;;;;;1.00;0.90;;;;;;;;;;10202256;28;20692;-81
2022/12/20 03:12:01;;;;;;;1.20;1.10;;;;;;;;;;10202654;28;20192;-81
2022/12/20 03:16:57;;;;;;;1.10;1.00;;;;;;;;;;10202284;28;20207;-81
2022/12/20 03:21:53;;;;;;;1.40;1.30;;;;;;;;;;10202276;28;20172;-81
2022/12/20 03:26:49;;;;;;;1.40;1.30;;;;;;;;;;10202177;28;20566;-81
2022/12/20 03:31:45;;;;;;;1.27;1.10;;;;;;;;;;10202091;28;20186;-81
2022/12/20 03:36:40;;;;;;;1.70;1.47;;;16.70;48.50;;;;;;10202195;28;20273;-82
2022/12/20 03:41:35;;;;;;;1.10;1.00;;;16.60;48.90;;;;;;10201291;28;20176;-82
2022/12/20 03:46:31;;;;;;;1.20;1.10;;;16.60;49.10;;;;;;10202378;28;20247;-82
2022/12/20 03:51:26;;;;;;;1.27;1.00;;;16.50;49.10;;;;;;10201707;28;20275;-81
2022/12/20 03:56:22;;;;;;;1.20;1.10;;;16.60;49.10;;;;;;10201510;28;20283;-82
2022/12/20 04:01:17;;;;;;;1.40;1.30;;;16.60;49.10;;;;;;10201538;28;20539;-81
2022/12/20 04:06:12;;;;;;;1.60;1.30;;;16.60;49.10;;;;;;10201409;28;20176;-81
2022/12/20 04:11:17;;;;;;;1.47;1.23;;;16.60;49.10;;;;;;10201365;28;20603;-82
2022/12/20 04:16:12;;;;;;;1.23;1.13;;;16.60;49.10;;;;;;10201204;28;20204;-82
2022/12/20 04:21:08;;;;;;;1.20;1.10;;;16.60;49.10;;;;;;10204394;28;20181;-81
2022/12/20 04:26:03;;;;;;;1.40;1.17;;;16.60;49.10;;;;;;10208135;28;20623;-81
2022/12/20 04:30:59;;;;;;;2.27;1.40;;;16.60;49.00;;;;;;10208059;28;20177;-82
2022/12/20 04:35:54;;;;;;;1.63;1.53;;;16.70;49.10;;;;;;10207749;28;20205;-82
2022/12/20 04:40:49;;;;;;;1.83;1.10;;;16.60;49.00;;;;;;10207640;28;20188;-81
2022/12/20 04:45:45;;;;;;;1.50;1.20;;;16.60;49.10;;;;;;10207407;28;20191;-81
2022/12/20 04:50:40;;;;;;;1.10;1.00;;;16.60;49.00;;;;;;10207328;28;20636;-81
2022/12/20 04:55:36;;;;;;;1.20;1.10;;;16.60;49.10;;;;;;10207042;28;20228;-82
2022/12/20 05:00:31;;;;;;;1.50;1.40;;;16.60;49.20;;;;;;10207217;28;20651;-81
2022/12/20 05:05:26;;;;;;;1.40;1.30;;;16.60;49.10;;;;;;10206272;28;20602;-81
2022/12/20 05:10:22;;;;;;;1.33;1.20;;;16.60;49.10;;;;;;10206478;28;20258;-72
2022/12/20 05:15:17;;;;;;;1.10;1.00;;;16.60;49.10;;;;;;10206412;28;20183;-71
2022/12/20 05:20:12;;;;;;;1.70;1.27;;;16.60;49.20;;;;;;10205507;28;20186;-71
2022/12/20 05:30:22;;;;;;;1.43;1.20;;;16.70;49.20;;;;;;10205037;28;20160;-69
2022/12/20 05:35:17;;;;;;;1.63;1.20;;;16.70;49.20;;;;;;10204864;28;20188;-71
2022/12/20 05:40:12;;;;;;;1.60;1.50;;;16.80;49.60;;;;;;10205308;28;20646;-71
2022/12/20 05:45:08;;;;;;;1.20;1.10;;;16.80;49.30;;;;;;10205703;28;20184;-72
2022/12/20 05:50:03;;;;;;;1.93;1.27;;;16.80;49.40;;;;;;10204943;28;20189;-73
2022/12/20 05:54:59;;;;;;;1.43;1.10;;;16.80;49.40;;;;;;10204434;28;20801;-71
2022/12/20 05:59:54;;;;;;;1.27;1.00;;;16.90;50.00;;;;;;10204434;28;20233;-71
2022/12/20 06:04:50;;;;;;;2.20;1.43;;;17.00;50.20;;;;;;10203836;28;20232;-71
2022/12/20 06:09:45;;;;;;;1.53;1.10;;;17.00;50.40;;;;;;10204257;28;20607;-70
2022/12/20 06:14:40;;;;;;;1.30;1.20;;;17.00;50.50;;;;;;10204479;28;20177;-72
2022/12/20 06:19:36;;;;;;;2.27;1.33;;;17.00;50.50;;;;;;10203887;28;20209;-69
2022/12/20 06:24:32;;;;;;;1.83;1.63;;;17.00;50.60;;;;;;10203783;28;20187;-72
2022/12/20 06:29:27;;;;;;;2.50;1.00;;;17.00;50.60;;;;;;10203732;28;20280;-70
2022/12/20 06:34:23;;;;;;;2.70;1.10;;;17.10;50.60;;;;;;10203445;28;20255;-73
2022/12/20 06:39:18;;;;;;;1.90;1.10;;;17.20;50.70;;;;;;10202893;28;20216;-73
2022/12/20 06:44:14;;;;;;;2.43;1.73;;;17.10;50.60;;;;;;10202606;28;20257;-71
2022/12/20 06:49:09;;;;;;;1.47;1.30;;;17.10;50.60;;;;;;10203006;28;20181;-73
2022/12/20 06:54:04;;;;;;;6.73;1.60;;;17.20;50.60;;;;;;10202511;28;20244;-73
2022/12/20 06:59:00;;;;;;;1.80;1.20;;;17.20;50.70;;;;;;10202721;28;20256;-73
2022/12/20 07:03:55;;;;;;;3.40;1.17;;;17.30;50.60;;;;;;10202651;28;20267;-73
2022/12/20 07:08:50;;;;;;;1.30;1.20;;;17.30;50.40;;;;;;10202544;28;20584;-73
2022/12/20 07:13:46;;;;;;;3.10;1.50;;;17.30;50.40;;;;;;10202478;28;20180;-72
2022/12/20 07:18:41;;;;;;;1.80;1.30;;;17.30;50.30;;;;;;10202103;28;20255;-73
2022/12/20 07:23:37;;;;;;;1.67;1.57;;;17.30;50.30;;;;;;10201689;28;20196;-73
2022/12/20 07:28:32;;;;;;;1.77;1.40;;;17.20;50.40;;;;;;10202264;28;20177;-73
2022/12/20 07:33:27;;;;;;;1.30;1.10;;;17.20;50.40;;;;;;10200612;28;20185;-72
2022/12/20 07:38:23;;;;;;;2.80;1.50;;;17.10;50.30;;;;;;10188887;28;20251;-73
2022/12/20 07:43:18;;;;;;;1.30;1.07;;;17.20;50.20;;;;;;10198040;28;20287;-73
2022/12/20 07:48:14;;;;;;;1.37;1.27;;;17.10;50.10;;;;;;10201681;28;20188;-73
2022/12/20 07:53:09;;;;;;;1.40;1.30;;;17.20;50.20;;;;;;10200893;28;20261;-73
2022/12/20 07:58:05;;;;;;;1.30;1.20;;;17.20;50.00;;;;;;10205519;28;20640;-73
2022/12/20 08:03:00;;;;;;;1.10;1.00;;;17.10;50.00;;;;;;10208459;28;20170;-72
2022/12/20 08:07:58;;;;;;;1.90;1.10;;;17.20;50.00;;;;;;10209101;28;20607;-73
2022/12/20 08:12:53;;;;;;;1.47;1.27;;;17.20;50.00;;;;;;10208580;28;20189;-74
2022/12/20 08:17:49;;;;;;;1.00;0.90;;;17.20;50.00;;;;;;10208478;28;20556;-77
2022/12/20 08:22:44;;;;;;;1.83;1.10;;;17.30;50.40;;;;;;10208650;28;20241;-77
2022/12/20 08:27:40;;;;;;;1.30;1.20;;;17.20;50.30;;;;;;10208641;28;20261;-78
2022/12/20 08:32:35;;;;;;;1.20;1.10;;;17.20;50.20;;;;;;10208022;28;20260;-78
2022/12/20 08:37:30;;;;;;;2.97;2.03;;;17.10;50.10;;;;;;10207856;28;20298;-78
2022/12/20 08:42:26;;;;;;;1.50;1.10;;;17.20;50.10;;;;;;10207615;28;20662;-78
2022/12/20 08:47:21;;;;;;;1.93;1.03;;;17.20;50.00;;;;;;10207426;28;20181;-79
2022/12/20 08:52:17;;;;;;;1.20;1.10;;;17.20;50.00;;;;;;10207077;28;20177;-78
2022/12/20 08:57:12;;;;;;;1.73;1.10;;;17.10;49.80;;;;;;10207191;28;20223;-76
2022/12/20 09:02:07;;;;;;;1.50;1.30;;;17.10;49.90;;;;;;10207313;28;20188;-77
2022/12/20 09:07:03;;;;;;;1.50;1.10;;;17.10;49.90;;;;;;10205975;28;20182;-77
2022/12/20 09:11:58;;;;;;;1.00;0.90;;;17.10;49.80;;;;;;10205796;28;20177;-76
2022/12/20 09:16:54;;;;;;;1.50;1.30;;;17.10;49.80;;;;;;10206092;28;20207;-80
2022/12/20 09:21:49;;;;;;;1.37;1.23;;;17.20;49.80;;;;;;10206071;28;20181;-79
2022/12/20 09:26:44;;;;;;;1.10;1.00;;;17.20;49.80;;;;;;10205875;28;20630;-79
2022/12/20 09:31:40;;;;;;;1.17;1.00;;;17.10;49.70;;;;;;10205684;28;20173;-77
2022/12/20 09:36:35;;;;;;;1.30;1.17;;;17.00;49.80;;;;;;10205420;28;20209;-79
2022/12/20 09:41:31;;;;;;;1.20;1.10;;;17.00;49.90;;;;;;10205247;28;20231;-79
2022/12/20 09:46:26;;;;;;;1.20;1.10;;;17.00;50.00;;;;;;10204580;28;20311;-76
2022/12/20 09:51:21;;;;;;;1.07;0.90;;;17.00;49.90;;;;;;10202115;28;20714;-77
2022/12/20 09:56:17;;;;;;;2.27;1.20;;;17.00;50.00;;;;;;10201252;28;20241;-78
2022/12/20 10:01:12;;;;;;;1.47;1.10;;;17.00;50.00;;;;;;10204106;28;20177;-80
2022/12/20 10:06:07;;;;;;;1.07;1.00;;;17.00;50.00;;;;;;10204034;28;20562;-81
2022/12/20 10:11:03;;;;;;;1.20;1.10;;;17.00;49.90;;;;;;10197328;28;20193;-78
2022/12/20 10:15:59;;;;;;;1.30;1.10;;;17.00;49.90;;;;;;10187050;28;20213;-74
2022/12/20 10:20:54;;;;;;;1.47;1.27;;;17.00;49.90;;;;;;10174703;28;20200;-75
2022/12/20 10:25:49;;;;;;;1.13;1.03;;;17.10;49.80;;;;;;10163826;28;20259;-75
2022/12/20 10:30:45;;;;;;;1.13;1.00;;;17.10;49.80;;;;;;10163164;28;20230;-75
2022/12/20 10:35:42;;;;;;;1.23;0.93;;;17.10;49.80;;;;;;10163407;28;20181;-77
2022/12/20 10:40:37;;;;;;;2.60;1.20;;;17.10;49.80;;;;;;10162709;28;20170;-76
2022/12/20 10:45:32;;;;;;;1.70;1.20;;;17.10;49.70;;;;;;10163228;28;20182;-72
2022/12/20 10:50:28;;;;;;;5.30;1.60;;;17.20;50.20;;;;;;10163079;28;20177;-76
2022/12/20 10:55:23;;;;;;;4.00;2.23;;;17.40;51.00;;;;;;10162122;28;20657;-78
2022/12/20 11:00:19;;;;;;;1.97;1.30;;;;;;;;;;10162254;28;20252;-76
2022/12/20 11:05:15;;;;;;;4.10;1.87;;;;;;;;;;10162738;28;20186;-73
2022/12/20 11:10:11;;;;;;;2.03;1.20;;;;;;;;;;10162748;28;20658;-73
2022/12/20 11:15:07;;;;;;;2.23;1.30;;;;;;;;;;10162501;28;20182;-73
2022/12/20 11:20:03;;;;;;;2.33;1.33;;;;;;;;;;10162338;28;20532;-73
2022/12/20 11:24:59;;;;;;;2.00;1.40;;;;;;;;;;10161978;28;20190;-73
2022/12/20 11:29:55;;;;;;;1.40;1.20;;;;;;;;;;10165939;28;20207;-73
2022/12/20 11:34:51;;;;;;;1.97;1.20;;;;;;;;;;10170240;28;20256;-73
2022/12/20 11:39:47;;;;;;;1.50;1.30;;;;;;;;;;10169426;28;20225;-73
2022/12/20 11:44:43;;;;;;;1.47;1.20;;;;;;;;;;10169432;28;20616;-73
2022/12/20 11:49:39;;;;;;;1.77;1.10;;;;;;;;;;10169689;28;20201;-73
2022/12/20 11:54:36;;;;;;;1.33;1.23;;;;;;;;;;10169521;28;20229;-73
2022/12/20 11:59:32;;;;;;;2.70;1.43;;;;;;;;;;10169280;28;20665;-73
2022/12/20 12:04:28;;;;;;;1.20;1.10;;;;;;;;;;10168553;28;20188;-73
2022/12/20 12:09:24;;;;;;;1.40;1.30;;;;;;;;;;10168423;28;20253;-73
2022/12/20 12:14:20;;;;;;;1.63;1.53;;;;;;;;;;10168823;28;20273;-73
2022/12/20 12:19:16;;;;;;;1.80;1.07;;;;;;;;;;10168581;28;20289;-73
2022/12/20 12:24:12;;;;;;;3.33;1.40;;;;;;;;;;10168450;28;20183;-73
2022/12/20 12:29:08;;;;;;;1.20;0.90;;;;;;;;;;10168153;28;20248;-73
2022/12/20 12:34:03;;;;;;;1.50;1.20;;;;;;;;;;10167499;28;20261;-73
2022/12/20 12:38:59;;;;;;;3.17;1.30;;;;;;;;;;10167836;28;20213;-74
2022/12/20 12:43:55;;;;;;;1.30;1.20;;;;;;;;;;10166314;28;20174;-74
2022/12/20 12:48:51;;;;;;;7.23;1.30;;;;;;;;;;10167532;28;20181;-86
2022/12/20 12:53:47;;;;;;;1.20;1.00;;;;;;;;;;10167260;28;20534;-76
2022/12/20 12:58:43;;;;;;;1.50;1.30;;;;;;;;;;10166438;28;20252;-77
2022/12/20 13:03:39;;;;;;;2.07;1.27;;;;;;;;;;10166430;28;20258;-77
2022/12/20 13:08:35;;;;;;;1.53;1.30;;;;;;;;;;10160993;28;20234;-77
2022/12/20 13:13:31;;;;;;;1.20;1.10;;;;;;;;;;10165952;28;20175;-77
2022/12/20 13:18:27;;;;;;;1.20;1.00;;;;;;;;;;10166258;28;20203;-77
2022/12/20 13:23:23;;;;;;;1.47;1.20;;;;;;;;;;10166758;28;20176;-77
2022/12/20 13:28:21;;;;;;;1.70;1.50;;;;;;;;;;10165787;28;20174;-77
2022/12/20 13:33:19;;;;;;;1.50;1.40;;;;;;;;;;10166211;28;20272;-77
2022/12/20 13:38:15;;;;;;;1.50;1.10;;;;;;;;;;10165329;28;20239;-76
2022/12/20 13:43:11;;;;;;;2.30;1.10;;;;;;;;;;10165390;28;20175;-78
2022/12/20 13:48:06;;;;;;;1.33;1.23;;;;;;;;;;10165234;28;20167;-78
2022/12/20 13:53:02;;;;;;;1.70;1.30;;;17.30;49.70;;;;;;10165096;28;20252;-79
2022/12/20 13:57:57;;;;;;;1.50;1.30;;;17.30;50.40;;;;;;10165260;28;20702;-87
2022/12/20 14:02:53;;;;;;;1.13;1.03;;;17.20;50.40;;;;;;10164735;28;20177;-81
2022/12/20 14:07:48;;;;;;;1.60;1.33;;;17.20;50.50;;;;;;10164807;28;20205;-91
2022/12/20 14:12:43;;;;;;;1.20;1.10;;;17.20;50.50;;;;;;10164257;28;20185;-89
2022/12/20 14:17:39;;;;;;;2.47;1.27;;;17.20;50.50;;;;;;10164635;28;20208;-88
2022/12/20 14:22:35;;;;;;;2.83;1.43;;;17.20;50.40;;;;;;10163947;28;20182;-89
2022/12/20 14:27:30;;;;;;;1.90;1.00;;;17.30;50.40;;;;;;10164120;28;20254;-90
2022/12/20 14:32:26;;;;;;;1.40;1.30;;;17.20;50.40;;;;;;10163208;28;20269;-89
2022/12/20 14:37:21;;;;;;;1.57;1.47;;;17.20;50.30;;;;;;10163307;28;20662;-89
2022/12/20 14:42:16;;;;;;;2.47;1.30;;;17.30;50.30;;;;;;10163349;28;20176;-89
2022/12/20 14:47:12;;;;;;;1.30;1.20;;;17.20;50.20;;;;;;10162518;28;20178;-88
2022/12/20 14:52:07;;;;;;;1.27;1.10;;;17.30;50.20;;;;;;10163467;28;20182;-77
2022/12/20 14:57:03;;;;;;;1.60;1.23;;;17.30;50.30;;;;;;10162690;28;20222;-78
2022/12/20 15:01:58;;;;;;;1.67;1.43;;;17.30;50.20;;;;;;10162816;28;20196;-77
2022/12/20 15:06:53;;;;;;;1.40;1.30;;;17.30;50.20;;;;;;10162199;28;20566;-77
2022/12/20 15:11:50;;;;;;;2.53;1.50;;;17.30;50.20;;;;;;10161910;28;20264;-78
2022/12/20 15:16:45;;;;;;;2.53;1.60;;;17.30;50.20;;;;;;10161684;28;20201;-76
2022/12/20 15:21:44;;;;;;;3.27;1.23;;;17.30;50.70;;;;;;10161903;28;20184;-76
2022/12/20 15:26:39;;;;;;;1.77;1.30;;;17.50;51.60;;;;;;10161955;28;20678;-76
2022/12/20 15:31:35;;;;;;;1.40;1.30;;;17.60;52.00;;;;;;10161906;28;20297;-77
2022/12/20 15:36:32;;;;;;;1.83;1.73;;;17.60;52.10;;;;;;10161798;28;20207;-77
2022/12/20 15:41:28;;;;;;;2.70;1.70;;;17.50;52.60;;;;;;10162060;28;20171;-78
2022/12/20 15:46:23;;;;;;;1.90;1.50;;;17.50;52.30;;;;;;10162647;28;20613;-78
2022/12/20 15:51:19;;;;;;;1.60;1.50;;;17.50;52.30;;;;;;10161507;28;20181;-77
2022/12/20 15:56:14;;;;;;;3.27;1.67;;;17.50;52.50;;;;;;10160864;28;20233;-76
2022/12/20 16:01:09;;;;;;;2.53;1.60;;;17.60;52.50;;;;;;10161402;28;20201;-78
2022/12/20 16:06:05;;;;;;;1.90;1.50;;;17.60;52.70;;;;;;10160766;28;20205;-77
2022/12/20 16:11:00;;;;;;;2.77;1.73;;;17.60;52.50;;;;;;10161197;28;20175;-78
2022/12/20 16:15:56;;;;;;;2.53;1.50;;;17.60;52.50;;;;;;10162093;28;20202;-78
2022/12/20 16:20:51;;;;;;;1.60;1.20;;;17.60;52.40;;;;;;10168788;28;20185;-78
2022/12/20 16:25:46;;;;;;;4.40;1.73;;;17.70;52.30;;;;;;10167619;28;20182;-78
2022/12/20 16:30:42;;;;;;;3.00;1.40;;;17.70;52.00;;;;;;10167901;28;20177;-76
2022/12/20 16:35:37;;;;;;;1.40;1.30;;;17.70;52.10;;;;;;10167844;28;20194;-75
2022/12/20 16:40:33;;;;;;;1.77;1.57;;;17.70;52.30;;;;;;10166452;28;20221;-75
2022/12/20 16:45:28;;;;;;;2.53;1.47;;;17.80;52.60;;;;;;10166752;28;20552;-75
2022/12/20 16:50:24;;;;;;;5.23;1.30;;;17.80;52.60;;;;;;10167208;28;20189;-75
2022/12/20 16:55:19;;;;;;;3.13;1.30;;;17.80;52.70;;;;;;10167189;28;20243;-75
2022/12/20 17:00:15;;;;;;;2.23;1.20;;;17.80;52.70;;;;;;10166784;28;20227;-73
2022/12/20 17:05:10;;;;;;;2.03;1.50;;;17.80;52.60;;;;;;10166087;28;20189;-74
2022/12/20 17:10:06;;;;;;;2.90;1.40;;;17.70;52.70;;;;;;10166346;28;20225;-77
2022/12/20 17:15:03;;;;;;;4.20;1.43;;;17.60;52.60;;;;;;10166692;28;20698;-78
2022/12/20 17:19:58;;;;;;;2.40;1.60;;;17.60;52.50;;;;;;10166004;28;20210;-78
2022/12/20 17:24:54;;;;;;;1.87;1.30;;;17.60;52.30;;;;;;10188821;28;20281;-78
2022/12/20 17:29:49;;;;;;;1.70;1.60;;;17.50;52.10;;;;;;10205247;28;20196;-82
2022/12/20 17:34:45;;;;;;;1.77;1.37;;;17.60;52.10;;;;;;10205193;28;20183;-81
2022/12/20 17:39:40;;;;;;;1.93;1.30;;;17.50;51.90;;;;;;10204886;28;20207;-77
2022/12/20 17:44:36;;;;;;;2.07;1.47;;;17.50;51.90;;;;;;10204680;28;20177;-73
2022/12/20 17:49:31;;;;;;;4.03;1.70;;;17.50;51.80;;;;;;10204769;28;20615;-73
2022/12/20 17:54:27;;;;;;;4.63;1.67;;;17.80;52.70;;;;;;10204424;28;20228;-73
2022/12/20 17:59:24;;;;;;;1.30;1.20;;;17.80;52.80;;;;;;10202882;28;20217;-76
2022/12/20 18:04:19;;;;;;;3.73;1.30;;;17.90;52.90;;;;;;10201017;28;20236;-74
2022/12/20 18:09:15;;;;;;;3.63;1.47;;;17.70;52.80;;;;;;10204047;28;20517;-72
2022/12/20 18:14:10;;;;;;;1.40;1.10;;;17.70;52.80;;;;;;10200962;28;20185;-79
2022/12/20 18:19:06;;;;;;;2.73;1.37;;;17.70;52.80;;;;;;10203355;28;20205;-77
2022/12/20 18:24:01;;;;;;;7.83;1.23;;;17.60;52.70;;;;;;10203864;28;20172;-73
2022/12/20 18:28:57;;;;;;;2.17;1.73;;;17.60;52.50;;;;;;10203619;28;20174;-75
2022/12/20 18:33:52;;;;;;;1.93;1.13;;;17.60;52.40;;;;;;10202486;28;20213;-74
2022/12/20 18:38:47;;;;;;;2.80;1.27;;;17.60;52.30;;;;;;10202535;28;20206;-75
2022/12/20 18:43:43;;;;;;;1.50;1.30;;;17.60;52.20;;;;;;10203154;28;20182;-78
2022/12/20 18:48:38;;;;;;;2.07;1.37;;;17.60;52.10;;;;;;10202725;28;20182;-75
2022/12/20 18:53:34;;;;;;;1.70;1.60;;;17.60;52.00;;;;;;10201516;28;20178;-75
2022/12/20 18:58:29;;;;;;;4.57;1.47;;;17.60;52.00;;;;;;10201748;28;20287;-75
2022/12/20 19:03:26;;;;;;;2.40;1.53;;;17.60;51.90;;;;;;10201987;28;20197;-75
2022/12/20 19:08:21;;;;;;;1.70;1.40;;;17.60;51.80;;;;;;10202024;28;20261;-76
2022/12/20 19:13:16;;;;;;;3.23;1.37;;;17.60;51.80;;;;;;10201584;28;20174;-72
2022/12/20 19:18:12;;;;;;;2.50;1.40;;;17.70;51.70;;;;;;10202221;28;20197;-74
2022/12/20 19:23:07;;;;;;;1.67;1.53;;;17.70;52.50;;;;;;10201738;28;20184;-74
2022/12/20 19:28:03;;;;;;;4.83;1.40;;;17.70;52.40;;;;;;10202089;28;20175;-74
2022/12/20 19:32:58;;;;;;;1.20;1.10;;;17.70;52.20;;;;;;10201581;28;20190;-75
2022/12/20 19:37:53;;;;;;;2.80;1.53;;;17.60;52.10;;;;;;10201825;28;20210;-74
2022/12/20 19:42:49;;;;;;;1.73;1.63;;;17.70;52.10;;;;;;10201785;28;20534;-74
2022/12/20 19:47:44;;;;;;;4.60;2.10;;;17.60;51.90;;;;;;10201669;28;20201;-75
2022/12/20 19:52:40;;;;;;;1.83;1.10;;;17.60;51.90;;;;;;10207091;28;20507;-75
2022/12/20 19:57:35;;;;;;;1.90;1.43;;;17.70;52.00;;;;;;10209579;28;20316;-75
2022/12/20 20:02:30;;;;;;;4.10;1.47;;;17.80;52.10;;;;;;10209396;28;20308;-75
2022/12/20 20:07:26;;;;;;;5.07;1.40;;;17.70;52.00;;;;;;10209063;28;20166;-75
2022/12/20 20:12:21;;;;;;;1.70;1.50;;;17.70;52.00;;;;;;10208930;28;20507;-75
2022/12/20 20:17:17;;;;;;;6.10;1.40;;;17.60;51.90;;;;;;10208597;28;20651;-75
2022/12/20 20:22:12;;;;;;;2.70;1.37;;;17.60;51.80;;;;;;10208490;28;20615;-75
2022/12/20 20:27:07;;;;;;;1.87;1.60;;;17.60;51.80;;;;;;10208787;28;20226;-75
2022/12/20 20:32:03;;;;;;;1.53;1.30;;;17.60;51.80;;;;;;10208140;28;20681;-75
2022/12/20 20:36:58;;;;;;;4.80;1.40;;;17.60;51.90;;;;;;10207284;28;20202;-74
2022/12/20 20:41:54;;;;;;;1.83;1.73;;;17.60;51.80;;;;;;10207772;28;20210;-74
2022/12/20 20:46:49;;;;;;;2.50;1.30;;;17.60;51.90;;;;;;10207000;28;20170;-75
2022/12/20 20:51:44;;;;;;;2.30;1.40;;;17.60;51.90;;;;;;10200983;28;20185;-75
2022/12/20 20:56:40;;;;;;;3.50;1.63;;;17.50;51.80;;;;;;10206256;28;20303;-75
2022/12/20 21:01:35;;;;;;;2.63;1.40;;;17.60;51.90;;;;;;10204645;28;20204;-74
2022/12/20 21:06:31;;;;;;;1.87;1.37;;;17.60;51.90;;;;;;10206864;28;20260;-74
2022/12/20 21:11:26;;;;;;;2.30;1.50;;;17.50;51.80;;;;;;10206540;28;20633;-74
2022/12/20 21:16:23;;;;;;;1.53;1.43;;;17.50;51.90;;;;;;10205805;28;20299;-74
2022/12/20 21:21:19;;;;;;;2.00;1.67;;;17.50;51.90;;;;;;10206086;28;20627;-74
2022/12/20 21:26:14;;;;;;;1.50;1.40;;;17.50;51.90;;;;;;10206069;28;20181;-74
2022/12/20 21:31:10;;;;;;;1.40;1.23;;;17.50;51.90;;;;;;10205904;28;20251;-74
2022/12/20 21:36:05;;;;;;;1.57;1.47;;;17.50;51.90;;;;;;10205752;28;20187;-74
2022/12/20 21:41:00;;;;;;;1.27;1.10;;;17.40;51.90;;;;;;10205617;28;20256;-76
2022/12/20 21:45:56;;;;;;;1.57;1.47;;;17.50;51.90;;;;;;10205619;28;20186;-80
2022/12/20 21:50:51;;;;;;;1.43;1.30;;;17.50;51.90;;;;;;10205199;28;20499;-80
2022/12/20 21:55:47;;;;;;;1.60;1.50;;;17.50;51.90;;;;;;10204918;28;20221;-78
2022/12/20 22:00:42;;;;;;;1.60;1.50;;;17.50;51.90;;;;;;10202969;28;20671;-81
2022/12/20 22:05:38;;;;;;;2.00;1.17;;;17.50;51.90;;;;;;10204995;28;20178;-80
2022/12/20 22:10:33;;;;;;;1.13;1.03;;;17.50;51.80;;;;;;10204291;28;20177;-80
2022/12/20 22:15:29;;;;;;;1.30;1.20;;;;;;;;;;10203207;28;20193;-76
2022/12/20 22:20:25;;;;;;;1.47;1.20;;;;;;;;;;10203999;28;20199;-76
2022/12/20 22:25:21;;;;;;;2.10;1.30;;;;;;;;;;10203825;28;20174;-76
2022/12/20 22:30:17;;;;;;;1.20;1.10;;;;;;;;;;10203889;28;20530;-76
2022/12/20 22:35:13;;;;;;;1.30;1.20;;;;;;;;;;10203622;28;20206;-76
2022/12/20 22:40:09;;;;;;;1.30;1.20;;;;;;;;;;10202740;28;20284;-76
2022/12/20 22:45:04;;;;;;;1.27;1.07;;;;;;;;;;10203169;28;20264;-76
2022/12/20 22:50:00;;;;;;;1.40;1.30;;;;;;;;;;10203595;28;20260;-76
2022/12/20 22:54:56;;;;;;;1.10;1.00;;;;;;;;;;10203003;28;20216;-76
2022/12/20 22:59:52;;;;;;;1.20;1.10;;;;;;;;;;10202773;28;20217;-76
2022/12/20 23:04:48;;;;;;;1.10;1.00;;;;;;;;;;10202727;28;20243;-76
2022/12/20 23:09:44;;;;;;;1.00;0.90;;;;;;;;;;10202726;28;20181;-76
2022/12/20 23:25:09;;;;;;;1.23;1.13;;;;;;;;;;10204290;28;20267;-76
2022/12/20 23:30:05;;;;;;;1.10;1.00;;;;;;;;;;10210451;28;20643;-76
2022/12/20 23:35:01;;;;;;;1.13;0.90;;;;;;;;;;10210572;28;20194;-76
2022/12/20 23:39:57;;;;;;;1.23;1.13;;;;;;;;;;10210107;28;20212;-77
2022/12/20 23:44:53;;;;;;;1.17;1.00;;;;;;;;;;10210726;28;20525;-76
2022/12/20 23:49:49;;;;;;;1.70;1.10;;;;;;;;;;10209834;28;20261;-76
2022/12/20 23:54:45;;;;;;;1.23;1.13;;;;;;;;;;10209292;28;20804;-76
2022/12/20 23:59:41;;;;;;;1.80;1.10;;;17.50;51.00;;;;;;10209752;28;20300;-77
